createdAt,value
2023-07-17T00:01:01.784Z,100.00
2023-07-17T00:06:06.158Z,100.00
2023-07-17T00:11:08.980Z,100.00
2023-07-17T00:16:11.970Z,98.46
2023-07-17T00:21:16.523Z,97.37
2023-07-17T00:26:19.747Z,95.92
2023-07-17T00:31:22.785Z,97.15
2023-07-17T00:36:26.984Z,97.68
2023-07-17T00:41:31.128Z,98.99
2023-07-17T00:46:35.875Z,100.00
2023-07-17T00:51:44.615Z,100.00
2023-07-17T00:56:48.399Z,100.00
2023-07-17T01:01:51.610Z,100.00
2023-07-17T01:06:56.096Z,100.00
2023-07-17T01:11:59.003Z,100.00
2023-07-17T01:17:02.288Z,100.00
2023-07-17T01:22:12.717Z,100.00
2023-07-17T01:27:18.732Z,100.00
2023-07-17T01:32:22.023Z,100.00
2023-07-17T01:37:25.012Z,100.00
2023-07-17T01:42:29.187Z,100.00
2023-07-17T01:47:32.217Z,100.00
2023-07-17T01:52:35.134Z,100.00
2023-07-17T01:57:39.351Z,100.00
2023-07-17T02:02:42.942Z,100.00
2023-07-17T02:07:45.904Z,100.00
2023-07-17T02:12:50.129Z,100.00
2023-07-17T02:17:53.002Z,100.00
2023-07-17T02:22:56.014Z,100.00
2023-07-17T02:28:00.259Z,100.00
2023-07-17T02:33:03.070Z,100.00
2023-07-17T02:38:06.057Z,100.00
2023-07-17T02:43:10.822Z,100.00
2023-07-17T02:48:13.714Z,100.00
2023-07-17T02:53:16.584Z,100.00
2023-07-17T02:58:23.055Z,100.00
2023-07-17T03:03:25.968Z,100.00
2023-07-17T03:08:28.951Z,100.00
2023-07-17T03:13:33.529Z,100.00
2023-07-17T03:18:36.337Z,100.00
2023-07-17T03:23:39.648Z,100.00
2023-07-17T03:28:43.936Z,100.00
2023-07-17T03:33:47.099Z,100.00
2023-07-17T03:38:50.033Z,100.00
2023-07-17T03:43:58.053Z,100.00
2023-07-17T03:49:04.998Z,100.00
2023-07-17T03:54:08.339Z,100.00
2023-07-17T03:59:12.620Z,100.00
2023-07-17T04:04:15.493Z,100.00
2023-07-17T04:09:18.853Z,100.00
2023-07-17T04:14:23.241Z,100.00
2023-07-17T04:19:26.667Z,100.00
2023-07-17T04:24:29.618Z,100.00
2023-07-17T04:29:34.050Z,100.00
2023-07-17T04:34:39.700Z,100.00
2023-07-17T04:39:42.520Z,100.00
2023-07-17T04:44:46.903Z,100.00
2023-07-17T04:49:54.270Z,100.00
2023-07-17T04:54:58.835Z,100.00
2023-07-17T05:00:03.988Z,100.00
2023-07-17T05:05:07.657Z,100.00
2023-07-17T05:10:11.662Z,100.00
2023-07-17T05:15:18.593Z,100.00
2023-07-17T05:20:22.197Z,100.00
2023-07-17T05:25:25.916Z,100.00
2023-07-17T05:30:30.252Z,100.00
2023-07-17T05:35:33.096Z,100.00
2023-07-17T05:40:38.893Z,100.00
2023-07-17T05:45:43.222Z,100.00
2023-07-17T05:50:47.216Z,100.00
2023-07-17T05:55:50.137Z,100.00
2023-07-17T06:00:54.421Z,100.00
2023-07-17T06:05:57.296Z,99.94
2023-07-17T06:11:00.307Z,95.92
2023-07-17T06:16:04.911Z,95.47
2023-07-17T06:21:08.099Z,93.50
2023-07-17T06:26:10.936Z,86.90
2023-07-17T06:31:15.672Z,82.05
2023-07-17T06:36:19.253Z,79.46
2023-07-17T06:41:22.076Z,77.75
2023-07-17T06:46:26.381Z,76.82
2023-07-17T06:51:29.242Z,76.31
2023-07-17T06:56:32.544Z,77.06
2023-07-17T07:01:36.873Z,76.30
2023-07-17T07:06:39.760Z,74.02
2023-07-17T07:11:42.778Z,72.65
2023-07-17T07:16:47.066Z,70.55
2023-07-17T07:21:50.010Z,68.42
2023-07-17T07:26:52.896Z,63.17
2023-07-17T07:31:57.114Z,60.66
2023-07-17T07:36:59.971Z,59.55
2023-07-17T07:42:02.876Z,57.98
2023-07-17T07:47:07.668Z,57.87
2023-07-17T07:52:10.484Z,54.31
2023-07-17T07:57:13.297Z,53.35
2023-07-17T08:02:18.320Z,52.36
2023-07-17T08:07:21.307Z,51.79
2023-07-17T08:12:24.194Z,51.97
2023-07-17T08:17:28.437Z,52.30
2023-07-17T08:22:31.306Z,51.52
2023-07-17T08:27:34.165Z,50.92
2023-07-17T08:32:38.446Z,51.62
2023-07-17T08:37:41.272Z,51.75
2023-07-17T08:42:46.981Z,51.70
2023-07-17T08:47:53.468Z,52.67
2023-07-17T08:52:57.334Z,52.21
2023-07-17T08:58:04.481Z,52.41
2023-07-17T09:03:09.435Z,52.84
2023-07-17T09:08:12.437Z,52.10
2023-07-17T09:13:15.510Z,50.76
2023-07-17T09:18:27.349Z,51.50
2023-07-17T09:23:39.503Z,52.59
2023-07-17T09:28:49.893Z,53.77
2023-07-17T09:33:54.759Z,51.82
2023-07-17T09:38:58.950Z,49.50
2023-07-17T09:44:04.148Z,50.24
2023-07-17T09:49:09.191Z,50.90
2023-07-17T09:54:13.595Z,48.34
2023-07-17T09:59:20.284Z,48.61
2023-07-17T10:04:28.100Z,50.17
2023-07-17T10:09:34.383Z,50.51
2023-07-17T10:14:37.926Z,50.92
2023-07-17T10:19:48.313Z,51.58
2023-07-17T10:24:51.328Z,51.42
2023-07-17T10:29:54.207Z,50.45
2023-07-17T10:34:58.511Z,50.21
2023-07-17T10:40:06.206Z,49.86
2023-07-17T10:45:11.280Z,49.54
2023-07-17T10:50:15.676Z,48.16
2023-07-17T10:55:18.557Z,48.22
2023-07-17T11:00:21.768Z,48.65
2023-07-17T11:05:26.016Z,48.88
2023-07-17T11:10:28.982Z,47.04
2023-07-17T11:15:33.727Z,45.28
2023-07-17T11:20:38.520Z,46.75
2023-07-17T11:25:43.353Z,44.56
2023-07-17T11:30:46.165Z,44.85
2023-07-17T11:35:51.813Z,44.14
2023-07-17T11:40:56.732Z,43.59
2023-07-17T11:46:03.255Z,44.42
2023-07-17T11:51:08.027Z,44.46
2023-07-17T11:56:11.162Z,44.77
2023-07-17T12:01:14.038Z,45.77
2023-07-17T12:06:18.243Z,44.43
2023-07-17T12:11:21.102Z,43.37
2023-07-17T12:16:23.939Z,41.16
2023-07-17T12:21:30.881Z,40.95
2023-07-17T12:26:35.031Z,41.16
2023-07-17T12:31:38.592Z,40.01
2023-07-17T12:36:43.017Z,38.67
2023-07-17T12:41:46.034Z,37.85
2023-07-17T12:46:48.968Z,38.10
2023-07-17T12:51:53.265Z,36.67
2023-07-17T12:56:56.176Z,37.26
2023-07-17T13:02:01.933Z,36.45
2023-07-17T13:07:07.479Z,35.57
2023-07-17T13:12:10.591Z,35.92
2023-07-17T13:17:13.395Z,35.54
2023-07-17T13:22:17.817Z,36.05
2023-07-17T13:27:20.748Z,35.83
2023-07-17T13:32:23.590Z,33.82
2023-07-17T13:37:27.771Z,31.95
2023-07-17T13:42:30.600Z,33.08
2023-07-17T13:47:33.586Z,34.49
2023-07-17T13:52:37.880Z,35.91
2023-07-17T13:57:40.707Z,34.23
2023-07-17T14:02:43.816Z,33.46
2023-07-17T14:07:48.008Z,31.39
2023-07-17T14:12:50.964Z,32.42
2023-07-17T14:17:53.853Z,30.36
2023-07-17T14:22:58.161Z,31.53
2023-07-17T14:28:01.066Z,29.54
2023-07-17T14:33:04.572Z,32.81
2023-07-17T14:38:08.863Z,33.40
2023-07-17T14:43:11.863Z,35.34
2023-07-17T14:48:14.878Z,37.12
2023-07-17T14:53:19.090Z,38.07
2023-07-17T14:58:21.982Z,38.53
2023-07-17T15:03:24.922Z,38.61
2023-07-17T15:08:29.193Z,35.06
2023-07-17T15:13:37.368Z,36.83
2023-07-17T15:18:41.187Z,31.86
2023-07-17T15:23:47.130Z,30.77
2023-07-17T15:28:49.939Z,28.98
2023-07-17T15:33:56.128Z,26.98
2023-07-17T15:39:00.354Z,26.37
2023-07-17T15:44:03.231Z,27.87
2023-07-17T15:49:06.100Z,25.87
2023-07-17T15:54:10.401Z,29.49
2023-07-17T15:59:13.158Z,30.16
2023-07-17T16:04:15.950Z,27.77
2023-07-17T16:09:21.039Z,32.94
2023-07-17T16:14:23.868Z,26.27
2023-07-17T16:19:27.504Z,29.63
2023-07-17T16:24:31.811Z,25.68
2023-07-17T16:29:34.618Z,25.20
2023-07-17T16:34:37.470Z,24.69
2023-07-17T16:39:41.684Z,23.81
2023-07-17T16:44:44.606Z,28.13
2023-07-17T16:49:47.532Z,32.26
2023-07-17T16:54:51.850Z,34.08
2023-07-17T16:59:55.234Z,35.69
2023-07-17T17:04:58.250Z,36.57
2023-07-17T17:10:02.732Z,38.15
2023-07-17T17:15:06.628Z,38.99
2023-07-17T17:20:10.806Z,39.43
2023-07-17T17:25:15.105Z,40.48
2023-07-17T17:30:18.028Z,41.42
2023-07-17T17:35:21.152Z,40.98
2023-07-17T17:40:25.440Z,40.44
2023-07-17T17:45:29.469Z,40.13
2023-07-17T17:50:32.723Z,42.17
2023-07-17T17:55:40.202Z,42.79
2023-07-17T18:00:43.083Z,44.54
2023-07-17T18:05:46.510Z,45.51
2023-07-17T18:10:50.827Z,47.21
2023-07-17T18:15:53.681Z,48.60
2023-07-17T18:20:56.725Z,49.42
2023-07-17T18:26:00.976Z,50.52
2023-07-17T18:31:04.983Z,51.39
2023-07-17T18:36:08.984Z,52.14
2023-07-17T18:41:14.059Z,54.20
2023-07-17T18:46:17.099Z,54.43
2023-07-17T18:51:20.405Z,56.20
2023-07-17T18:56:24.676Z,57.77
2023-07-17T19:01:27.572Z,58.77
2023-07-17T19:06:31.290Z,61.25
2023-07-17T19:11:35.498Z,62.61
2023-07-17T19:16:38.576Z,65.97
2023-07-17T19:21:44.746Z,67.69
2023-07-17T19:26:49.010Z,69.84
2023-07-17T19:31:52.210Z,70.22
2023-07-17T19:36:56.189Z,70.28
2023-07-17T19:42:00.503Z,72.07
2023-07-17T19:47:03.384Z,73.10
2023-07-17T19:52:07.117Z,74.03
2023-07-17T19:57:11.808Z,73.83
2023-07-17T20:02:14.810Z,73.52
2023-07-17T20:07:17.643Z,74.95
2023-07-17T20:12:22.425Z,75.80
2023-07-17T20:17:26.439Z,75.99
2023-07-17T20:22:29.428Z,76.86
2023-07-17T20:27:39.522Z,77.96
2023-07-17T20:32:42.851Z,76.60
2023-07-17T20:37:45.768Z,78.63
2023-07-17T20:42:50.500Z,78.56
2023-07-17T20:47:53.378Z,79.28
2023-07-17T20:52:57.927Z,79.50
2023-07-17T20:58:02.545Z,78.58
2023-07-17T21:03:05.556Z,79.53
2023-07-17T21:08:08.760Z,80.28
2023-07-17T21:13:12.973Z,81.20
2023-07-17T21:18:16.407Z,82.74
2023-07-17T21:23:19.359Z,83.97
2023-07-17T21:28:23.659Z,83.01
2023-07-17T21:33:26.501Z,84.64
2023-07-17T21:38:29.388Z,86.55
2023-07-17T21:43:33.664Z,84.81
2023-07-17T21:48:36.606Z,90.00
2023-07-17T21:53:39.501Z,90.87
2023-07-17T21:58:43.766Z,89.67
2023-07-17T22:03:46.799Z,90.52
2023-07-17T22:08:49.954Z,91.54
2023-07-17T22:13:54.449Z,95.21
2023-07-17T22:18:57.407Z,96.71
2023-07-17T22:24:00.286Z,95.43
2023-07-17T22:29:05.194Z,96.72
2023-07-17T22:34:08.040Z,93.92
2023-07-17T22:39:10.902Z,95.23
2023-07-17T22:44:15.354Z,96.68
2023-07-17T22:49:18.281Z,100.00
2023-07-17T22:54:21.303Z,98.96
2023-07-17T22:59:26.218Z,100.00
2023-07-17T23:04:29.201Z,98.50
2023-07-17T23:09:33.386Z,99.38
2023-07-17T23:14:38.124Z,100.00
2023-07-17T23:19:41.008Z,100.00
2023-07-17T23:24:44.617Z,100.00
2023-07-17T23:29:49.051Z,100.00
2023-07-17T23:34:52.037Z,100.00
2023-07-17T23:39:55.217Z,100.00
2023-07-17T23:45:02.445Z,100.00
2023-07-17T23:50:05.923Z,100.00
2023-07-17T23:55:09.943Z,100.00
